Time;durP1;ratioP1;P1;durP2;ratioP2;P2;SDS_P1;SDS_P2;PMS_P1;PMS_P2;Temp;Humidity;BMP_temperature;BMP_pressure;BME280_temperature;BME280_humidity;BME280_pressure;Samples;Min_cycle;Max_cycle;Signal;HPM_P1;HPM_P2
2022/01/23 00:02:08;;;;;;;12.07;6.88;;;4.50;83.50;;;;;;6097025;23;20164;-68
2022/01/23 00:04:38;;;;;;;9.65;6.10;;;4.50;83.30;;;;;;6096048;23;20193;-68
2022/01/23 00:07:09;;;;;;;7.90;5.18;;;4.40;83.30;;;;;;6096409;23;20192;-67
2022/01/23 00:09:43;;;;;;;8.45;5.15;;;4.40;82.90;;;;;;6096992;23;20165;-67
2022/01/23 00:12:26;;;;;;;6.90;4.80;;;4.40;83.00;;;;;;6096909;23;20192;-67
2022/01/23 00:17:55;;;;;;;8.45;4.78;;;4.30;84.00;;;;;;6096697;23;20161;-68
2022/01/23 00:20:36;;;;;;;7.97;5.40;;;4.20;83.90;;;;;;6096615;23;20154;-68
2022/01/23 00:23:13;;;;;;;6.95;5.30;;;4.20;84.70;;;;;;6097491;23;20161;-67
2022/01/23 00:31:11;;;;;;;8.50;5.07;;;4.20;85.00;;;;;;6097052;23;20157;-67
2022/01/23 00:33:43;;;;;;;10.25;6.22;;;4.20;85.00;;;;;;6096472;23;20166;-68
2022/01/23 00:36:13;;;;;;;8.02;4.53;;;4.30;85.00;;;;;;6096854;23;20158;-68
2022/01/23 00:38:42;;;;;;;5.10;3.55;;;4.20;84.70;;;;;;6096783;23;20177;-67
2022/01/23 00:41:25;;;;;;;5.40;3.75;;;4.30;84.80;;;;;;6096883;23;20169;-67
2022/01/23 00:43:54;;;;;;;5.97;3.85;;;4.30;84.80;;;;;;6096975;23;20192;-68
2022/01/23 00:46:33;;;;;;;7.55;4.20;;;4.30;84.80;;;;;;6097363;23;20550;-67
2022/01/23 00:51:50;;;;;;;4.40;2.95;;;4.20;84.70;;;;;;6096785;23;20154;-67
2022/01/23 00:54:18;;;;;;;5.03;3.42;;;4.30;85.00;;;;;;6097009;23;20158;-68
2022/01/23 00:56:50;;;;;;;4.57;3.15;;;4.30;85.00;;;;;;6096802;23;20486;-67
2022/01/23 00:59:19;;;;;;;3.80;2.85;;;4.30;84.80;;;;;;6097060;23;20154;-68
2022/01/23 01:01:58;;;;;;;5.53;3.33;;;4.30;84.90;;;;;;6097054;23;20229;-67
2022/01/23 01:04:39;;;;;;;5.18;3.40;;;4.30;84.90;;;;;;6096655;23;20205;-67
2022/01/23 01:07:08;;;;;;;4.75;3.08;;;4.30;85.00;;;;;;6096583;23;20212;-68
2022/01/23 01:09:37;;;;;;;5.78;3.40;;;4.30;84.90;;;;;;6096837;23;20165;-67
2022/01/23 01:12:25;;;;;;;6.50;3.72;;;4.30;84.80;;;;;;6096472;23;20174;-68
2022/01/23 01:30:09;;;;;;;5.35;3.22;;;4.30;84.80;;;;;;6081457;23;20343;-67
2022/01/23 01:31:45;;;;;;;6.80;4.55;;;4.30;85.20;;;;;;6096355;23;20173;-68
2022/01/23 01:34:32;;;;;;;9.80;5.47;;;4.30;85.30;;;;;;6096939;23;20157;-68
2022/01/23 01:37:09;;;;;;;7.78;5.20;;;4.30;85.10;;;;;;6096158;23;20232;-67
2022/01/23 01:39:44;;;;;;;5.22;3.53;;;4.30;85.20;;;;;;6096196;23;20154;-67
2022/01/23 01:42:12;;;;;;;9.77;4.72;;;4.20;85.30;;;;;;6096462;23;20252;-68
2022/01/23 01:44:39;;;;;;;6.80;4.28;;;4.20;85.30;;;;;;6096392;23;20216;-67
2022/01/23 01:47:11;;;;;;;5.30;3.90;;;4.10;85.70;;;;;;6096272;23;20180;-67
2022/01/23 01:49:39;;;;;;;7.82;4.10;;;4.20;86.00;;;;;;6096077;23;20181;-68
2022/01/23 01:52:10;;;;;;;7.05;4.38;;;4.20;86.00;;;;;;6096189;23;20221;-68
2022/01/23 01:54:40;;;;;;;8.77;4.05;;;4.20;86.00;;;;;;6095986;23;20213;-67
2022/01/23 01:57:15;;;;;;;5.43;4.10;;;4.20;85.80;;;;;;6096075;23;20158;-68
2022/01/23 02:00:11;;;;;;;4.75;3.70;;;4.20;85.60;;;;;;6096486;23;20518;-68
2022/01/23 02:08:23;;;;;;;8.10;4.28;;;4.30;86.00;;;;;;6095782;23;20593;-67
2022/01/23 02:11:01;;;;;;;7.97;5.85;;;4.20;86.00;;;;;;6095726;23;20157;-68
2022/01/23 02:13:35;;;;;;;8.85;5.22;;;4.20;85.90;;;;;;6095461;23;20653;-68
2022/01/23 02:16:32;;;;;;;8.30;4.35;;;4.20;86.00;;;;;;6096665;23;20272;-69
2022/01/23 02:52:44;;;;;;;10.85;7.80;;;4.10;86.20;;;;;;6032435;23;20566;-67
2022/01/23 02:55:16;;;;;;;12.45;9.50;;;4.10;86.90;;;;;;6095700;23;20245;-68
2022/01/23 02:57:54;;;;;;;12.05;8.18;;;4.10;87.20;;;;;;6095485;23;20154;-67
2022/01/23 03:00:25;;;;;;;10.80;7.85;;;4.20;87.00;;;;;;6095431;23;20168;-68
2022/01/23 03:03:01;;;;;;;9.25;5.50;;;4.20;87.10;;;;;;6095753;23;20154;-67
2022/01/23 03:05:38;;;;;;;6.88;4.60;;;4.20;87.10;;;;;;6095056;23;20216;-67
2022/01/23 03:08:20;;;;;;;7.90;5.45;;;4.20;86.60;;;;;;6096074;23;20228;-67
2022/01/23 03:11:00;;;;;;;7.18;4.20;;;4.10;87.20;;;;;;6095194;23;20157;-67
2022/01/23 03:25:01;;;;;;;6.95;4.85;;;4.00;88.50;;;;;;6095502;23;20204;-68
2022/01/23 03:30:18;;;;;;;9.38;5.10;;;3.90;88.60;;;;;;6094612;23;20166;-69
2022/01/23 03:32:50;;;;;;;11.40;5.68;;;4.00;88.80;;;;;;6095214;23;20160;-68
2022/01/23 03:35:19;;;;;;;7.60;5.70;;;4.00;89.00;;;;;;6096303;23;20154;-67
2022/01/23 03:37:52;;;;;;;13.35;7.60;;;4.00;88.70;;;;;;6097365;23;20176;-67
2022/01/23 03:40:22;;;;;;;11.25;7.35;;;4.10;88.60;;;;;;6097141;23;20292;-67
2022/01/23 03:42:57;;;;;;;13.63;7.85;;;4.10;88.20;;;;;;6097119;23;20158;-68
2022/01/23 03:45:48;;;;;;;9.07;6.18;;;4.10;88.30;;;;;;6096753;23;20287;-68
2022/01/23 03:51:00;;;;;;;15.48;6.05;;;4.00;88.30;;;;;;6033767;23;20261;-68
2022/01/23 03:53:27;;;;;;;11.38;6.45;;;4.10;88.10;;;;;;6097567;23;20209;-67
2022/01/23 03:56:09;;;;;;;9.23;5.50;;;4.00;88.20;;;;;;6097399;23;20229;-67
2022/01/23 03:58:38;;;;;;;6.60;4.85;;;4.00;88.40;;;;;;6096989;23;20173;-68
2022/01/23 04:01:06;;;;;;;8.40;5.47;;;4.00;88.50;;;;;;6097313;23;20224;-68
2022/01/23 04:03:40;;;;;;;8.23;6.03;;;3.90;88.30;;;;;;6097295;23;20170;-68
2022/01/23 04:06:12;;;;;;;8.60;6.18;;;3.80;88.80;;;;;;6098143;23;20189;-67
2022/01/23 04:08:44;;;;;;;9.75;6.93;;;3.70;89.60;;;;;;6097318;23;20157;-67
2022/01/23 04:11:13;;;;;;;11.13;6.78;;;3.70;90.00;;;;;;6097290;23;20197;-69
2022/01/23 04:13:52;;;;;;;10.13;7.13;;;3.70;90.00;;;;;;6097390;23;20457;-68
2022/01/23 04:16:44;;;;;;;10.30;7.70;;;3.70;90.10;;;;;;6097395;23;20158;-68
2022/01/23 04:19:29;;;;;;;13.75;10.80;;;3.70;90.20;;;;;;6097455;23;20198;-67
2022/01/23 05:01:49;;;;;;;13.50;6.85;;;3.90;90.00;;;;;;6096988;23;20267;-67
2022/01/23 05:04:22;;;;;;;12.00;8.10;;;3.90;90.10;;;;;;6096473;23;20182;-67
2022/01/23 05:06:59;;;;;;;13.00;7.30;;;4.00;90.20;;;;;;6097519;23;20463;-68
2022/01/23 05:09:32;;;;;;;9.77;6.00;;;4.00;90.10;;;;;;6096989;23;20207;-67
2022/01/23 05:12:02;;;;;;;11.40;6.90;;;3.90;90.10;;;;;;6097079;23;20160;-67
2022/01/23 05:14:44;;;;;;;17.25;10.38;;;3.90;90.00;;;;;;6095932;23;20216;-67
2022/01/23 05:17:23;;;;;;;17.27;11.27;;;3.90;90.00;;;;;;6097919;23;20225;-67
2022/01/23 05:19:54;;;;;;;14.25;8.38;;;3.90;90.10;;;;;;6096545;23;20188;-67
2022/01/23 05:22:34;;;;;;;10.60;6.80;;;3.90;90.20;;;;;;6096602;23;20161;-67
2022/01/23 05:25:14;;;;;;;12.60;7.35;;;3.90;90.20;;;;;;6097109;23;20189;-67
2022/01/23 05:27:54;;;;;;;11.13;7.00;;;4.00;90.10;;;;;;6096662;23;20168;-68
2022/01/23 05:30:23;;;;;;;11.18;6.80;;;4.00;90.00;;;;;;6096747;23;20161;-68
2022/01/23 05:33:00;;;;;;;14.27;8.30;;;4.00;89.70;;;;;;6096196;23;20640;-68
2022/01/23 05:35:30;;;;;;;12.05;8.50;;;4.00;89.90;;;;;;6096844;23;20166;-67
2022/01/23 05:38:02;;;;;;;15.23;9.10;;;4.00;89.60;;;;;;6096266;23;20164;-67
2022/01/23 05:40:30;;;;;;;14.65;8.65;;;4.00;89.80;;;;;;6096780;23;20158;-67
2022/01/23 05:42:58;;;;;;;14.98;9.43;;;4.10;89.80;;;;;;6096333;23;20181;-67
2022/01/23 05:45:26;;;;;;;19.58;9.48;;;4.10;89.60;;;;;;6096687;23;20220;-67
2022/01/23 05:47:55;;;;;;;11.35;7.20;;;4.10;89.40;;;;;;6096139;23;20170;-67
2022/01/23 05:50:25;;;;;;;11.07;6.68;;;4.10;89.40;;;;;;6096440;23;20176;-67
2022/01/23 05:53:14;;;;;;;10.60;7.82;;;4.10;89.00;;;;;;6096356;23;20174;-68
2022/01/23 05:55:52;;;;;;;13.65;8.60;;;4.00;88.70;;;;;;6096798;23;20189;-67
2022/01/23 05:58:25;;;;;;;14.20;9.07;;;4.00;89.60;;;;;;6095706;23;20162;-67
2022/01/23 06:00:52;;;;;;;16.58;10.07;;;4.00;90.00;;;;;;6096826;23;20158;-67
2022/01/23 06:03:25;;;;;;;12.98;8.90;;;4.00;89.80;;;;;;6096300;23;20172;-67
2022/01/23 06:05:58;;;;;;;14.90;8.98;;;3.90;89.80;;;;;;6096224;23;20204;-67
2022/01/23 06:08:32;;;;;;;13.52;8.98;;;3.90;89.70;;;;;;6096250;23;20207;-72
2022/01/23 06:11:00;;;;;;;18.25;10.75;;;3.80;90.00;;;;;;6095801;23;20543;-67
2022/01/23 06:13:29;;;;;;;15.30;9.45;;;3.90;90.20;;;;;;6096319;23;20169;-67
2022/01/23 06:16:03;;;;;;;13.50;10.18;;;3.90;90.10;;;;;;6095362;23;20197;-67
2022/01/23 06:18:32;;;;;;;13.00;8.60;;;3.90;90.10;;;;;;6096200;23;20161;-67
2022/01/23 06:20:59;;;;;;;12.45;8.30;;;4.00;90.10;;;;;;6096357;23;20170;-67
2022/01/23 06:23:29;;;;;;;16.25;10.15;;;4.00;90.00;;;;;;6095999;23;20169;-67
2022/01/23 06:25:58;;;;;;;13.13;8.43;;;4.00;89.60;;;;;;6095902;23;20987;-67
2022/01/23 06:28:37;;;;;;;12.60;7.47;;;4.00;89.80;;;;;;6096452;23;20233;-67
2022/01/23 06:31:04;;;;;;;10.10;7.05;;;4.00;90.00;;;;;;6095659;23;20164;-68
2022/01/23 06:33:32;;;;;;;8.90;6.32;;;4.00;90.00;;;;;;6095896;23;20205;-67
2022/01/23 06:36:01;;;;;;;10.10;7.15;;;4.00;89.90;;;;;;6096695;23;20176;-67
2022/01/23 06:38:29;;;;;;;14.95;8.75;;;4.00;90.40;;;;;;6096014;23;20169;-67
2022/01/23 06:40:58;;;;;;;12.88;8.00;;;4.00;90.10;;;;;;6096270;23;20536;-67
2022/01/23 06:43:25;;;;;;;14.43;9.40;;;4.00;89.90;;;;;;6096204;23;20166;-67
2022/01/23 06:45:53;;;;;;;11.10;7.85;;;4.00;89.80;;;;;;6096431;23;20190;-69
2022/01/23 06:48:29;;;;;;;13.25;7.70;;;4.00;89.80;;;;;;6096022;23;20490;-68
2022/01/23 06:50:57;;;;;;;12.07;8.00;;;4.00;89.60;;;;;;6096724;23;20153;-68
2022/01/23 06:53:29;;;;;;;12.80;8.15;;;4.00;89.60;;;;;;6096115;23;20165;-69
2022/01/23 06:56:02;;;;;;;12.63;8.10;;;4.00;89.80;;;;;;6096620;23;20154;-67
2022/01/23 06:58:31;;;;;;;14.35;8.85;;;4.00;89.80;;;;;;6095876;23;20165;-67
2022/01/23 07:01:00;;;;;;;12.70;8.40;;;4.00;89.90;;;;;;6096643;23;20165;-67
2022/01/23 07:03:28;;;;;;;13.88;8.23;;;4.00;89.80;;;;;;6095768;23;20180;-67
2022/01/23 07:05:55;;;;;;;12.02;7.88;;;4.00;89.70;;;;;;6096195;23;20248;-67
2022/01/23 07:08:23;;;;;;;14.07;8.00;;;4.00;89.80;;;;;;6096262;23;20541;-67
2022/01/23 07:10:50;;;;;;;15.63;9.07;;;4.00;89.60;;;;;;6099371;23;20173;-68
2022/01/23 07:13:19;;;;;;;16.05;8.88;;;4.00;89.60;;;;;;6099293;23;20212;-68
2022/01/23 07:15:48;;;;;;;16.20;9.55;;;4.00;89.40;;;;;;6099185;23;20198;-68
2022/01/23 07:18:16;;;;;;;14.95;9.55;;;3.90;89.70;;;;;;6098990;23;20663;-67
2022/01/23 07:20:43;;;;;;;14.45;9.60;;;3.90;90.00;;;;;;6099339;23;20173;-67
2022/01/23 07:23:21;;;;;;;19.08;10.60;;;3.90;89.90;;;;;;6099772;23;20201;-67
2022/01/23 07:25:49;;;;;;;15.40;10.70;;;4.00;90.10;;;;;;6099007;23;20192;-67
2022/01/23 07:28:23;;;;;;;17.98;10.25;;;4.00;90.00;;;;;;6099288;23;20170;-67
2022/01/23 07:30:52;;;;;;;21.23;10.90;;;4.00;90.00;;;;;;6099436;23;20176;-67
2022/01/23 07:33:22;;;;;;;17.10;12.30;;;4.00;90.00;;;;;;6099277;23;20179;-67
2022/01/23 07:36:02;;;;;;;20.05;13.85;;;4.00;90.10;;;;;;6099090;23;20169;-67
2022/01/23 07:38:34;;;;;;;19.92;11.25;;;4.00;89.80;;;;;;6099454;23;20166;-67
2022/01/23 07:41:02;;;;;;;20.73;16.13;;;4.00;90.00;;;;;;6098904;23;20158;-69
2022/01/23 07:43:31;;;;;;;20.85;12.98;;;4.00;90.10;;;;;;6099558;23;20467;-67
2022/01/23 07:46:01;;;;;;;20.27;15.27;;;4.10;90.40;;;;;;6099178;23;20204;-67
2022/01/23 07:48:28;;;;;;;17.38;13.20;;;4.10;90.40;;;;;;6097181;23;20256;-67
2022/01/23 07:50:59;;;;;;;18.15;13.02;;;4.10;90.40;;;;;;6098527;23;20212;-68
2022/01/23 07:53:26;;;;;;;15.90;11.32;;;4.20;90.30;;;;;;6098769;23;20161;-67
2022/01/23 07:55:54;;;;;;;13.73;9.80;;;4.20;90.20;;;;;;6098590;23;20204;-68
2022/01/23 07:58:21;;;;;;;16.17;9.93;;;4.20;90.00;;;;;;6098034;23;20898;-67
2022/01/23 08:00:50;;;;;;;14.35;8.98;;;4.30;90.10;;;;;;6099102;23;20170;-68
2022/01/23 08:03:18;;;;;;;12.55;9.77;;;4.30;90.00;;;;;;6098549;23;20684;-68
2022/01/23 08:05:45;;;;;;;13.32;9.00;;;4.30;89.80;;;;;;6098570;23;20197;-67
2022/01/23 08:08:13;;;;;;;13.30;9.65;;;4.30;90.00;;;;;;6098540;23;20590;-68
2022/01/23 08:10:45;;;;;;;15.30;9.30;;;4.30;90.00;;;;;;6098762;23;20165;-67
2022/01/23 08:13:20;;;;;;;14.82;8.70;;;4.40;89.60;;;;;;6098211;23;20657;-69
2022/01/23 08:15:47;;;;;;;12.77;8.95;;;4.40;89.20;;;;;;6097831;23;20721;-67
2022/01/23 08:18:16;;;;;;;13.85;8.35;;;4.40;89.60;;;;;;6098533;23;20441;-68
2022/01/23 08:20:44;;;;;;;11.55;8.57;;;4.40;89.70;;;;;;6097608;23;20180;-67
2022/01/23 08:23:17;;;;;;;13.32;9.00;;;4.50;89.60;;;;;;6097223;23;20205;-67
2022/01/23 08:25:45;;;;;;;12.32;8.00;;;4.60;89.80;;;;;;6096578;23;20221;-69
2022/01/23 08:28:14;;;;;;;13.55;9.05;;;4.60;89.80;;;;;;6097168;23;20169;-68
2022/01/23 08:30:42;;;;;;;13.30;9.68;;;4.70;89.50;;;;;;6097732;23;20170;-67
2022/01/23 08:33:09;;;;;;;15.98;11.30;;;4.70;89.20;;;;;;6097096;23;20470;-68
2022/01/23 08:35:40;;;;;;;16.73;12.82;;;4.70;89.20;;;;;;6097121;23;20200;-67
2022/01/23 08:38:08;;;;;;;15.10;10.93;;;4.80;89.10;;;;;;6096605;23;20173;-67
2022/01/23 08:40:48;;;;;;;14.05;10.45;;;4.80;89.10;;;;;;6096618;23;20166;-68
2022/01/23 08:43:17;;;;;;;11.07;8.13;;;4.90;88.80;;;;;;6096637;23;20154;-68
2022/01/23 08:45:46;;;;;;;12.35;8.85;;;4.90;88.50;;;;;;6097074;23;20494;-68
2022/01/23 08:48:13;;;;;;;13.85;8.55;;;4.90;88.20;;;;;;6096958;23;20256;-69
2022/01/23 08:50:42;;;;;;;13.75;10.13;;;4.90;87.70;;;;;;6096226;23;20169;-68
2022/01/23 08:53:09;;;;;;;13.20;8.65;;;4.90;87.90;;;;;;6096276;23;20174;-67
2022/01/23 08:55:37;;;;;;;11.80;8.63;;;5.00;88.20;;;;;;6096037;23;20166;-68
2022/01/23 08:58:08;;;;;;;16.17;9.25;;;4.90;87.90;;;;;;6096487;23;20170;-67
2022/01/23 09:00:36;;;;;;;15.23;11.07;;;4.90;87.70;;;;;;6096378;23;20154;-68
2022/01/23 09:03:04;;;;;;;15.90;11.43;;;4.90;87.70;;;;;;6096559;23;20181;-68
2022/01/23 09:05:33;;;;;;;14.68;9.77;;;4.80;87.80;;;;;;6096474;23;20269;-68
2022/01/23 09:08:03;;;;;;;14.48;9.45;;;4.80;88.10;;;;;;6096684;23;20180;-67
2022/01/23 09:10:40;;;;;;;15.77;10.52;;;4.80;88.10;;;;;;6095731;23;20219;-67
2022/01/23 09:13:14;;;;;;;13.48;9.50;;;4.90;88.00;;;;;;6095870;23;20168;-67
2022/01/23 09:15:42;;;;;;;14.45;10.68;;;4.90;88.20;;;;;;6095735;23;20193;-67
2022/01/23 09:18:14;;;;;;;19.63;12.90;;;4.90;88.60;;;;;;6095958;23;20169;-68
2022/01/23 09:20:41;;;;;;;21.13;14.25;;;5.00;89.00;;;;;;6096753;23;20153;-67
2022/01/23 09:23:09;;;;;;;16.63;13.07;;;5.10;89.20;;;;;;6096891;23;20193;-67
2022/01/23 09:25:38;;;;;;;15.77;11.52;;;5.10;88.50;;;;;;6096175;23;20190;-68
2022/01/23 09:28:07;;;;;;;14.57;10.10;;;5.20;88.90;;;;;;6096802;23;20220;-67
2022/01/23 09:30:36;;;;;;;26.48;19.80;;;5.30;89.20;;;;;;6096346;23;20173;-67
2022/01/23 09:33:04;;;;;;;17.85;15.05;;;5.40;87.50;;;;;;6095741;23;20174;-67
2022/01/23 09:35:31;;;;;;;19.23;15.45;;;5.50;86.60;;;;;;6095803;23;20645;-67
2022/01/23 09:38:02;;;;;;;16.45;11.63;;;5.60;87.40;;;;;;6093248;23;20178;-67
2022/01/23 09:40:31;;;;;;;48.00;42.80;;;5.70;87.10;;;;;;6095484;23;20196;-67
2022/01/23 09:43:07;;;;;;;21.52;16.70;;;5.80;85.50;;;;;;6096128;23;20173;-67
2022/01/23 09:45:34;;;;;;;18.48;12.95;;;5.80;85.60;;;;;;6096165;23;20161;-67
2022/01/23 09:48:04;;;;;;;16.08;9.52;;;5.90;85.50;;;;;;6095903;23;20176;-67
2022/01/23 09:50:32;;;;;;;12.70;9.63;;;6.00;85.10;;;;;;6096033;23;20217;-67
2022/01/23 09:52:59;;;;;;;14.30;9.77;;;6.00;84.40;;;;;;6096411;23;20177;-67
2022/01/23 09:55:27;;;;;;;15.90;10.63;;;6.10;83.90;;;;;;6096588;23;20234;-67
2022/01/23 09:57:57;;;;;;;14.45;9.70;;;6.10;83.20;;;;;;6095678;23;20173;-68
2022/01/23 10:00:35;;;;;;;18.38;10.32;;;6.00;83.10;;;;;;6095811;23;20177;-67
2022/01/23 10:03:02;;;;;;;16.85;10.40;;;6.00;82.80;;;;;;6096447;23;20153;-68
2022/01/23 10:05:30;;;;;;;14.63;9.45;;;6.00;82.80;;;;;;6095462;23;20174;-67
2022/01/23 10:07:59;;;;;;;11.75;7.95;;;6.00;82.40;;;;;;6096174;23;20172;-67
2022/01/23 10:10:27;;;;;;;11.15;7.80;;;6.00;81.50;;;;;;6096073;23;20166;-67
2022/01/23 10:12:58;;;;;;;13.45;10.00;;;6.00;82.10;;;;;;6096062;23;20176;-68
2022/01/23 10:15:27;;;;;;;17.30;10.02;;;6.10;82.80;;;;;;6095467;23;20197;-67
2022/01/23 10:17:54;;;;;;;15.05;9.63;;;6.20;82.00;;;;;;6095145;23;20594;-72
2022/01/23 10:20:22;;;;;;;17.33;10.65;;;6.20;82.20;;;;;;6095431;23;20173;-67
2022/01/23 10:22:51;;;;;;;15.38;9.95;;;6.20;82.20;;;;;;6095848;23;20252;-67
2022/01/23 10:25:21;;;;;;;16.55;8.63;;;6.30;81.60;;;;;;6094961;23;20177;-68
2022/01/23 10:28:01;;;;;;;10.77;8.20;;;6.40;82.20;;;;;;6096099;23;20201;-68
2022/01/23 10:30:32;;;;;;;10.45;6.55;;;6.50;82.20;;;;;;6096326;23;20524;-67
2022/01/23 10:33:07;;;;;;;8.50;6.60;;;6.60;82.10;;;;;;6095006;23;20154;-68
2022/01/23 10:35:36;;;;;;;13.15;8.55;;;6.80;81.10;;;;;;6095787;23;20168;-67
2022/01/23 10:38:13;;;;;;;13.07;8.02;;;7.00;81.40;;;;;;6095743;23;20166;-68
2022/01/23 10:40:48;;;;;;;9.52;6.40;;;7.20;80.70;;;;;;6096194;23;20261;-69
2022/01/23 10:48:56;;;;;;;9.75;6.47;;;7.50;77.00;;;;;;6095552;23;20161;-68
2022/01/23 10:51:26;;;;;;;9.15;5.93;;;7.80;76.00;;;;;;6095893;23;20233;-67
2022/01/23 10:54:02;;;;;;;12.23;6.93;;;8.00;76.20;;;;;;6095486;23;20170;-68
2022/01/23 10:56:31;;;;;;;8.55;5.82;;;8.20;76.60;;;;;;6095799;23;20157;-68
2022/01/23 10:59:03;;;;;;;9.13;6.65;;;8.50;73.30;;;;;;6095725;23;20170;-67
2022/01/23 11:01:30;;;;;;;11.52;6.93;;;8.50;73.40;;;;;;6095908;23;20153;-67
2022/01/23 11:04:09;;;;;;;9.93;7.65;;;8.70;72.70;;;;;;6095964;23;20300;-68
2022/01/23 11:06:52;;;;;;;8.25;6.47;;;9.00;71.70;;;;;;6095511;23;20236;-68
2022/01/23 11:09:19;;;;;;;5.50;4.00;;;9.10;69.30;;;;;;6095091;23;20160;-67
2022/01/23 11:11:49;;;;;;;5.45;4.05;;;9.20;68.10;;;;;;6095148;23;20232;-67
2022/01/23 11:17:24;;;;;;;7.93;6.00;;;9.00;67.40;;;;;;6092908;23;20200;-67
2022/01/23 11:19:58;;;;;;;9.95;7.18;;;9.10;69.00;;;;;;6093909;23;20177;-72
2022/01/23 11:22:29;;;;;;;13.10;9.40;;;9.20;67.80;;;;;;6095136;23;20505;-70
2022/01/23 11:25:18;;;;;;;12.38;7.90;;;9.20;67.10;;;;;;6090553;23;20162;-70
2022/01/23 11:27:48;;;;;;;9.90;7.13;;;9.20;67.00;;;;;;6094837;23;20645;-67
2022/01/23 11:30:21;;;;;;;10.48;7.80;;;9.10;66.90;;;;;;6095471;23;20189;-67
2022/01/23 11:32:56;;;;;;;14.07;8.98;;;9.10;67.10;;;;;;6095957;23;20162;-67
2022/01/23 11:35:27;;;;;;;11.38;8.48;;;9.00;67.30;;;;;;6095719;23;20169;-68
2022/01/23 11:37:55;;;;;;;11.25;8.43;;;8.80;67.10;;;;;;6095927;23;20501;-68
2022/01/23 11:54:40;;;;;;;12.82;8.63;;;8.20;68.70;;;;;;6095922;23;20177;-67
2022/01/23 11:57:46;;;;;;;11.70;9.05;;;8.10;69.30;;;;;;6097340;23;20178;-67
2022/01/23 12:00:20;;;;;;;12.07;8.35;;;8.20;69.90;;;;;;6068621;23;20189;-68
2022/01/23 12:03:13;;;;;;;11.57;8.25;;;8.00;69.50;;;;;;6096946;23;20161;-67
2022/01/23 12:05:44;;;;;;;11.35;7.80;;;8.10;69.60;;;;;;6098074;23;20260;-67
2022/01/23 12:08:26;;;;;;;11.20;9.27;;;8.10;69.40;;;;;;6097633;23;20186;-67
2022/01/23 12:11:42;;;;;;;14.88;10.75;;;8.10;69.20;;;;;;6097312;23;20158;-67
2022/01/23 12:17:47;;;;;;;11.10;9.40;;;8.20;69.40;;;;;;6096858;23;20165;-67
2022/01/23 12:20:36;;;;;;;16.80;11.02;;;8.20;68.80;;;;;;6090215;23;20248;-68
2022/01/23 12:23:04;;;;;;;10.82;9.00;;;8.30;68.20;;;;;;6097269;23;20225;-68
2022/01/23 12:25:41;;;;;;;14.10;10.20;;;8.30;67.40;;;;;;6096977;23;20165;-69
2022/01/23 12:28:21;;;;;;;11.13;8.85;;;8.40;67.50;;;;;;6096864;23;20188;-69
2022/01/23 12:30:53;;;;;;;10.43;7.85;;;8.40;67.70;;;;;;6097266;23;20154;-68
2022/01/23 12:33:23;;;;;;;10.38;7.18;;;8.40;67.10;;;;;;6097109;23;20165;-67
2022/01/23 12:35:54;;;;;;;7.40;5.22;;;8.40;65.60;;;;;;6097468;23;20241;-67
2022/01/23 12:38:32;;;;;;;13.60;9.25;;;8.40;66.00;;;;;;6096857;23;20177;-69
2022/01/23 12:41:30;;;;;;;9.75;7.10;;;8.40;65.90;;;;;;6097370;23;20474;-67
2022/01/23 12:43:59;;;;;;;12.90;7.97;;;8.40;65.30;;;;;;6093770;23;20547;-67
2022/01/23 12:46:38;;;;;;;9.38;7.15;;;8.40;65.10;;;;;;6096977;23;20172;-68
2022/01/23 12:49:36;;;;;;;8.40;6.10;;;8.50;66.10;;;;;;6097119;23;20157;-67
2022/01/23 12:52:19;;;;;;;8.43;5.72;;;8.60;64.90;;;;;;6008631;23;20212;-68
2022/01/23 12:54:56;;;;;;;8.45;5.82;;;8.50;63.70;;;;;;6086444;23;20220;-67
2022/01/23 12:57:31;;;;;;;10.02;6.70;;;8.50;64.80;;;;;;6097284;23;20459;-68
2022/01/23 13:00:01;;;;;;;9.82;7.22;;;8.50;65.10;;;;;;6097226;23;20232;-67
2022/01/23 13:02:40;;;;;;;12.50;8.55;;;8.50;65.30;;;;;;6096751;23;20169;-67
2022/01/23 13:05:09;;;;;;;12.43;8.38;;;8.50;65.30;;;;;;6097568;23;20457;-67
2022/01/23 13:07:43;;;;;;;10.60;8.30;;;8.40;65.50;;;;;;6096638;23;20201;-67
2022/01/23 13:10:26;;;;;;;10.35;7.95;;;8.30;64.90;;;;;;6096886;23;20165;-67
2022/01/23 13:13:05;;;;;;;11.20;8.60;;;8.20;65.30;;;;;;6097218;23;20166;-67
2022/01/23 13:18:36;;;;;;;12.30;8.02;;;8.10;65.40;;;;;;6086432;23;20162;-67
2022/01/23 13:27:23;;;;;;;10.55;7.90;;;8.00;65.60;;;;;;6096737;23;20502;-68
2022/01/23 13:30:02;;;;;;;12.00;7.93;;;7.80;65.50;;;;;;6096313;23;20172;-67
2022/01/23 13:32:40;;;;;;;9.13;7.32;;;7.70;64.70;;;;;;6096854;23;20164;-69
2022/01/23 13:35:12;;;;;;;9.88;7.63;;;7.60;65.40;;;;;;6097036;23;20162;-67
2022/01/23 13:37:42;;;;;;;9.95;7.47;;;7.60;66.50;;;;;;6096505;23;20157;-68
2022/01/23 13:40:14;;;;;;;10.00;7.28;;;7.50;66.70;;;;;;6096259;23;20644;-68
2022/01/23 13:42:52;;;;;;;11.60;9.20;;;7.50;66.70;;;;;;6096339;23;20237;-69
2022/01/23 13:54:18;;;;;;;14.77;8.30;;;7.40;67.60;;;;;;6047553;23;20169;-67
2022/01/23 13:59:46;;;;;;;12.45;8.82;;;7.30;68.30;;;;;;6096352;23;20161;-68
2022/01/23 14:02:22;;;;;;;9.27;7.13;;;7.20;68.90;;;;;;6096635;23;20520;-68
2022/01/23 14:04:51;;;;;;;10.48;8.32;;;7.10;69.10;;;;;;6096606;23;20232;-67
2022/01/23 14:07:20;;;;;;;12.18;7.93;;;7.10;70.00;;;;;;6093939;23;20241;-68
2022/01/23 14:09:48;;;;;;;14.30;8.75;;;7.00;68.90;;;;;;6096401;23;20244;-67
2022/01/23 14:12:19;;;;;;;15.13;8.88;;;6.90;69.50;;;;;;6095348;23;20245;-67
2022/01/23 14:14:52;;;;;;;9.98;7.43;;;6.80;70.20;;;;;;6095839;23;20276;-68
2022/01/23 14:17:25;;;;;;;11.07;7.68;;;6.80;70.80;;;;;;6095121;23;20220;-67
2022/01/23 14:20:00;;;;;;;11.63;7.68;;;6.70;70.80;;;;;;6095343;23;20158;-70
2022/01/23 14:22:29;;;;;;;11.05;7.75;;;6.70;69.80;;;;;;6096135;23;20161;-68
2022/01/23 14:25:12;;;;;;;12.35;8.20;;;6.60;70.60;;;;;;6095789;23;20176;-68
2022/01/23 14:27:43;;;;;;;11.30;7.68;;;6.60;71.00;;;;;;6096187;23;20306;-68
2022/01/23 14:30:20;;;;;;;12.73;9.13;;;6.50;71.70;;;;;;6095797;23;20165;-68
2022/01/23 14:32:51;;;;;;;9.85;6.97;;;6.50;72.00;;;;;;6095841;23;20657;-68
2022/01/23 14:35:20;;;;;;;10.75;7.30;;;6.40;71.70;;;;;;6096280;23;20233;-68
2022/01/23 14:37:49;;;;;;;13.23;7.90;;;6.50;71.60;;;;;;6095600;23;20176;-68
2022/01/23 14:40:21;;;;;;;13.10;8.63;;;6.50;71.00;;;;;;6095649;23;20621;-68
2022/01/23 14:43:02;;;;;;;14.52;9.35;;;6.40;71.80;;;;;;6096290;23;20240;-68
2022/01/23 14:45:31;;;;;;;12.18;9.32;;;6.40;72.10;;;;;;6095330;23;20242;-68
2022/01/23 14:47:58;;;;;;;14.45;8.38;;;6.40;72.10;;;;;;6096098;23;20197;-67
2022/01/23 14:50:29;;;;;;;11.52;7.60;;;6.30;71.60;;;;;;6095543;23;20366;-68
2022/01/23 14:52:57;;;;;;;12.18;7.47;;;6.20;72.00;;;;;;6095581;23;20196;-68
2022/01/23 14:55:24;;;;;;;14.18;9.50;;;6.20;72.30;;;;;;6095592;23;20170;-67
2022/01/23 14:57:55;;;;;;;13.25;9.15;;;6.10;72.60;;;;;;6095973;23;20170;-70
2022/01/23 15:00:23;;;;;;;12.75;8.95;;;6.00;73.30;;;;;;6095680;23;20164;-67
2022/01/23 15:02:50;;;;;;;13.70;8.52;;;5.90;74.10;;;;;;6095684;23;20230;-68
2022/01/23 15:05:17;;;;;;;13.13;8.63;;;5.80;74.20;;;;;;6095226;23;20180;-68
2022/01/23 15:07:49;;;;;;;13.50;8.73;;;5.80;74.60;;;;;;6094941;23;20193;-68
2022/01/23 15:10:16;;;;;;;11.07;8.30;;;5.80;74.80;;;;;;6095073;23;20480;-67
2022/01/23 15:12:44;;;;;;;14.65;9.68;;;5.70;75.20;;;;;;6096045;23;20172;-68
2022/01/23 15:15:11;;;;;;;10.45;7.75;;;5.80;75.60;;;;;;6095010;23;20228;-68
2022/01/23 15:17:40;;;;;;;12.30;8.68;;;5.70;75.80;;;;;;6096236;23;20180;-68
2022/01/23 15:20:13;;;;;;;14.15;9.32;;;5.70;76.30;;;;;;6095245;23;20491;-67
2022/01/23 15:22:45;;;;;;;12.27;8.30;;;5.70;76.30;;;;;;6095811;23;20154;-67
2022/01/23 15:25:18;;;;;;;13.02;7.90;;;5.70;76.60;;;;;;6095021;23;20176;-67
2022/01/23 15:27:47;;;;;;;13.68;9.13;;;5.70;76.40;;;;;;6096126;23;20538;-67
2022/01/23 15:30:17;;;;;;;15.00;8.13;;;5.70;76.70;;;;;;6095895;23;20188;-67
2022/01/23 15:32:51;;;;;;;12.93;9.05;;;5.70;77.00;;;;;;6098095;23;20166;-67
2022/01/23 15:35:21;;;;;;;14.35;8.38;;;5.60;76.90;;;;;;6097218;23;20158;-67
2022/01/23 15:37:51;;;;;;;10.43;8.13;;;5.60;76.90;;;;;;6097591;23;20182;-69
2022/01/23 15:40:22;;;;;;;11.18;8.90;;;5.60;77.10;;;;;;6097456;23;20165;-67
2022/01/23 15:42:51;;;;;;;15.30;8.98;;;5.60;77.30;;;;;;6097554;23;20158;-67
2022/01/23 15:45:20;;;;;;;14.68;9.27;;;5.50;77.40;;;;;;6095177;23;20221;-68
2022/01/23 15:47:49;;;;;;;13.30;9.50;;;5.50;77.70;;;;;;6096842;23;20196;-67
2022/01/23 15:50:19;;;;;;;12.60;8.90;;;5.40;78.20;;;;;;6097917;23;20533;-68
2022/01/23 15:52:51;;;;;;;17.10;10.52;;;5.40;78.10;;;;;;6097558;23;20260;-67
2022/01/23 15:55:28;;;;;;;16.50;11.25;;;5.40;78.10;;;;;;6097062;23;20661;-67
2022/01/23 15:57:56;;;;;;;15.63;10.48;;;5.40;78.30;;;;;;6097201;23;20216;-67
2022/01/23 16:00:24;;;;;;;15.80;9.48;;;5.40;78.50;;;;;;6097474;23;20257;-68
2022/01/23 16:02:53;;;;;;;14.55;9.75;;;5.30;78.70;;;;;;6097364;23;20170;-67
2022/01/23 16:05:21;;;;;;;12.18;8.80;;;5.30;78.80;;;;;;6097110;23;20177;-67